Carnelian Bay, California
Current Conditions -  °F | °C
As of 8:45 AM on Thursday 23 Oct 2014 (Local Time) from KTRK Reporting Station
Scattered Clouds Scattered Clouds  
Wind Chill: 39°   Ceiling: Unl
Heat Index: 39°   Visibility: 10mi
Dew Point: 30°   Wind: 0mph
Humidity: 70%   Direction: NA
Pressure: 30.19"   Gusts: NA
Location:  39.23°N, 120.08°W
Report Text: KTRK 231545Z 00000KT 10SM SCT120 04/M01 A3019 RMK NOSPECI
Loading
Personal Weather Stations






























Interactive Weather Map
Tropical Storm Tracking
New forecast layout! Learn more

10-Day Weather Forecast

Advertisements
Track Severe Weather on mobile